Un Akdeniz — TCTD2 — position and weather

sailwx.info

Track history (hours):
 
Tides and Currents Weather Stations Pressure Air Temp Water Temp Dewpoint Dewpoint Depression Visibility Wind Speed Wind Dir Waves Ship Positions

Un Akdeniz

Last reported at 2016-Feb-04 21:33 UTC. Time now 2016-Feb-06 13:36 UTC.
Position N 43°05' E 005°55'.

Length 192 m; draft 6.8 m.

Type: Ship (hazmat cat A). MMSI: 271002572.

Date/timePositionNaut miles runAvg speedWind from/ knotsBaromVisibWave heightAir tempDewpointWater temp
2016-Feb-04 21:33N 43°05' E 005°55'2 1.8
2016-Feb-04 20:33N 43°06' E 005°54'0 0.0
2016-Feb-04 19:32N 43°06' E 005°54'0 0.0
2016-Feb-04 18:32N 43°06' E 005°54'0 0.0
2016-Feb-04 17:32N 43°06' E 005°54'0 0.0
2016-Feb-04 16:31N 43°06' E 005°54'0 0.0
2016-Feb-04 15:31N 43°06' E 005°54'0 0.0
2016-Feb-04 14:33N 43°06' E 005°54'0 0.0
2016-Feb-04 13:33N 43°06' E 005°54'0 0.0
2016-Feb-04 12:33N 43°06' E 005°54'0 0.0
2016-Feb-04 11:33N 43°06' E 005°54'3 2.8
2016-Feb-04 10:33N 43°05' E 005°57'8115.5
2016-Feb-04 05:19N 43°14' E 007°48'3718.4
2016-Feb-04 03:18N 43°22' E 008°38'1317.3
2016-Feb-04 02:34N 43°17' E 008°54'1615.5
2016-Feb-04 01:33N 43°12' E 009°15'1514.6
2016-Feb-04 00:33N 43°04' E 009°32'74516.1
2016-Feb-02 02:13N 37°19' E 023°55'1420.0
2016-Feb-02 01:29N 37°31' E 024°05'2319.7
2016-Feb-02 00:18N 37°49' E 024°24'27017.0
2016-Feb-01 08:24N 40°52' E 028°41'1618.5
2016-Feb-01 07:33N 40°50' E 029°02'11 1.0
2016-Jan-31 20:32N 40°51' E 029°16'7 7.3
2016-Jan-31 19:33N 40°48' E 029°08'1919.0
2016-Jan-31 18:32N 40°49' E 028°42'62314.8
2016-Jan-30 00:21N 38°20' E 015°38'52518.9
2016-Jan-28 20:33N 43°05' E 005°57'3 2.5
2016-Jan-28 19:33N 43°06' E 005°54'0 0.0
2016-Jan-28 18:33N 43°06' E 005°54'0 0.0
2016-Jan-28 17:33N 43°06' E 005°54'0 0.0
2016-Jan-28 16:32N 43°06' E 005°54'0 0.0
2016-Jan-28 15:32N 43°06' E 005°54'0 0.0
2016-Jan-28 14:31N 43°06' E 005°54'0 0.0
2016-Jan-28 13:31N 43°06' E 005°54'0 0.0
2016-Jan-28 12:33N 43°06' E 005°54'0 0.0
2016-Jan-28 11:33N 43°06' E 005°54'0 0.0
2016-Jan-28 10:32N 43°06' E 005°54'0 0.0
2016-Jan-28 09:32N 43°06' E 005°54'0 0.0
2016-Jan-28 08:33N 43°06' E 005°54'40318.3
2016-Jan-27 10:33N 39°32' E 013°27'  
Track history (hours):
 
Tides and Currents Weather Stations Pressure Air Temp Water Temp Dewpoint Dewpoint Depression Visibility Wind Speed Wind Dir Waves Ship Positions

Un Akdeniz

Last reported at 2016-Feb-04 21:33 UTC. Time now 2016-Feb-06 13:36 UTC.
Position N 43°05' E 005°55'.

Length 192 m; draft 6.8 m.

Type: Ship (hazmat cat A). MMSI: 271002572.

Date/timePositionNaut miles runAvg speedWind from/ knotsBaromVisibWave heightAir tempDewpointWater temp
2016-Feb-04 21:33N 43°05' E 005°55'2 1.8
2016-Feb-04 20:33N 43°06' E 005°54'0 0.0
2016-Feb-04 19:32N 43°06' E 005°54'0 0.0
2016-Feb-04 18:32N 43°06' E 005°54'0 0.0
2016-Feb-04 17:32N 43°06' E 005°54'0 0.0
2016-Feb-04 16:31N 43°06' E 005°54'0 0.0
2016-Feb-04 15:31N 43°06' E 005°54'0 0.0
2016-Feb-04 14:33N 43°06' E 005°54'0 0.0
2016-Feb-04 13:33N 43°06' E 005°54'0 0.0
2016-Feb-04 12:33N 43°06' E 005°54'0 0.0
2016-Feb-04 11:33N 43°06' E 005°54'3 2.8
2016-Feb-04 10:33N 43°05' E 005°57'8115.5
2016-Feb-04 05:19N 43°14' E 007°48'3718.4
2016-Feb-04 03:18N 43°22' E 008°38'1317.3
2016-Feb-04 02:34N 43°17' E 008°54'1615.5
2016-Feb-04 01:33N 43°12' E 009°15'1514.6
2016-Feb-04 00:33N 43°04' E 009°32'74516.1
2016-Feb-02 02:13N 37°19' E 023°55'1420.0
2016-Feb-02 01:29N 37°31' E 024°05'2319.7
2016-Feb-02 00:18N 37°49' E 024°24'27017.0
2016-Feb-01 08:24N 40°52' E 028°41'1618.5
2016-Feb-01 07:33N 40°50' E 029°02'11 1.0
2016-Jan-31 20:32N 40°51' E 029°16'7 7.3
2016-Jan-31 19:33N 40°48' E 029°08'1919.0
2016-Jan-31 18:32N 40°49' E 028°42'62314.8
2016-Jan-30 00:21N 38°20' E 015°38'52518.9
2016-Jan-28 20:33N 43°05' E 005°57'3 2.5
2016-Jan-28 19:33N 43°06' E 005°54'0 0.0
2016-Jan-28 18:33N 43°06' E 005°54'0 0.0
2016-Jan-28 17:33N 43°06' E 005°54'0 0.0
2016-Jan-28 16:32N 43°06' E 005°54'0 0.0
2016-Jan-28 15:32N 43°06' E 005°54'0 0.0
2016-Jan-28 14:31N 43°06' E 005°54'0 0.0
2016-Jan-28 13:31N 43°06' E 005°54'0 0.0
2016-Jan-28 12:33N 43°06' E 005°54'0 0.0
2016-Jan-28 11:33N 43°06' E 005°54'0 0.0
2016-Jan-28 10:32N 43°06' E 005°54'0 0.0
2016-Jan-28 09:32N 43°06' E 005°54'0 0.0
2016-Jan-28 08:33N 43°06' E 005°54'40318.3
2016-Jan-27 10:33N 39°32' E 013°27'  

Dump ship's entire track history